Time;durP1;ratioP1;P1;durP2;ratioP2;P2;SDS_P1;SDS_P2;PMS_P1;PMS_P2;Temp;Humidity;BMP_temperature;BMP_pressure;BME280_temperature;BME280_humidity;BME280_pressure;Samples;Min_cycle;Max_cycle;Signal;HPM_P1;HPM_P2
2023/03/18 00:00:35;;;;;;;31.63;19.55;;;;;;;-144.87;100.00;61487.56;4974656;28;20062;-76
2023/03/18 00:03:01;;;;;;;32.63;19.92;;;;;;;-144.87;100.00;61487.56;4957258;28;20045;-76
2023/03/18 00:05:28;;;;;;;33.08;20.38;;;;;;;-144.87;100.00;61487.56;4970063;28;21303;-76
2023/03/18 00:07:54;;;;;;;34.00;21.15;;;;;;;-144.87;100.00;61487.56;4951455;28;20114;-75
2023/03/18 00:10:20;;;;;;;31.48;20.65;;;;;;;-144.87;100.00;61487.56;4969298;28;20041;-75
2023/03/18 00:12:47;;;;;;;35.45;19.90;;;;;;;-144.87;100.00;61487.56;4956806;28;20515;-77
2023/03/18 00:15:15;;;;;;;33.45;21.30;;;;;;;-144.87;100.00;61487.56;4954450;28;20042;-77
2023/03/18 00:17:42;;;;;;;31.08;21.02;;;;;;;-144.87;100.00;61487.56;4969934;28;20085;-75
2023/03/18 00:20:11;;;;;;;35.33;21.85;;;;;;;-144.87;100.00;61487.56;4940910;28;20404;-75
2023/03/18 00:22:40;;;;;;;35.65;21.85;;;;;;;-144.87;100.00;61487.56;4955593;28;20042;-75
2023/03/18 00:25:09;;;;;;;35.15;22.27;;;;;;;-144.87;100.00;61487.56;4967334;28;20416;-76
2023/03/18 00:27:35;;;;;;;36.28;23.60;;;;;;;-144.87;100.00;61487.56;4970346;28;20089;-75
2023/03/18 00:30:03;;;;;;;39.72;24.27;;;;;;;-144.87;100.00;61487.56;4937233;28;20408;-75
2023/03/18 00:32:30;;;;;;;38.38;23.00;;;;;;;-144.87;100.00;61487.56;4963102;28;20030;-75
2023/03/18 00:34:57;;;;;;;33.22;22.88;;;;;;;-144.87;100.00;61487.56;4955913;28;20042;-75
2023/03/18 00:37:30;;;;;;;40.03;23.17;;;;;;;-144.87;100.00;61487.56;4976944;28;20103;-76
2023/03/18 00:40:06;;;;;;;34.63;23.17;;;;;;;-144.87;100.00;61487.56;4948742;28;20037;-75
2023/03/18 00:42:37;;;;;;;33.88;22.98;;;;;;;-144.87;100.00;61487.56;4963056;28;20071;-74
2023/03/18 00:45:09;;;;;;;38.15;23.33;;;;;;;-144.87;100.00;61487.56;4952612;28;20122;-76
2023/03/18 00:47:37;;;;;;;36.80;22.48;;;;;;;-144.87;100.00;61487.56;4978763;28;20084;-76
2023/03/18 00:50:05;;;;;;;40.55;23.15;;;;;;;-144.87;100.00;61487.56;4971483;28;20511;-75
2023/03/18 00:52:31;;;;;;;31.85;22.85;;;;;;;-144.87;100.00;61487.56;4956532;28;20047;-75
2023/03/18 00:54:58;;;;;;;30.42;23.08;;;;;;;-144.87;100.00;61487.56;4966918;28;20393;-76
2023/03/18 00:57:24;;;;;;;35.50;22.58;;;;;;;-144.87;100.00;61487.56;4950546;28;20042;-76
2023/03/18 00:59:50;;;;;;;38.80;22.92;;;;;;;-144.87;100.00;61487.56;4971628;28;20031;-75
2023/03/18 01:02:17;;;;;;;32.15;21.85;;;;;;;-144.87;100.00;61487.56;4954970;28;20264;-74
2023/03/18 01:04:44;;;;;;;33.17;21.73;;;;;;;-144.87;100.00;61487.56;4938978;28;20125;-75
2023/03/18 01:07:12;;;;;;;38.40;24.98;;;;;;;-144.87;100.00;61487.56;4940829;28;20423;-75
2023/03/18 01:09:39;;;;;;;33.92;23.80;;;;;;;-144.87;100.00;61487.56;4955997;28;20042;-76
2023/03/18 01:12:07;;;;;;;33.45;23.80;;;;;;;-144.87;100.00;61487.56;4943913;28;20034;-76
2023/03/18 01:14:35;;;;;;;32.85;22.38;;;;;;;-144.87;100.00;61487.56;4974949;28;20518;-75
2023/03/18 01:17:03;;;;;;;36.35;22.23;;;;;;;-144.87;100.00;61487.56;4961213;28;20042;-75
2023/03/18 01:19:30;;;;;;;31.13;22.48;;;;;;;-144.87;100.00;61487.56;4953052;28;20400;-75
2023/03/18 01:21:56;;;;;;;37.00;22.75;;;;;;;-144.87;100.00;61487.56;4975310;28;20058;-75
2023/03/18 01:24:23;;;;;;;36.38;22.30;;;;;;;-144.87;100.00;61487.56;4924040;28;20514;-75
2023/03/18 01:26:49;;;;;;;40.83;24.08;;;;;;;-144.87;100.00;61487.56;4967577;28;20043;-75
2023/03/18 01:29:16;;;;;;;36.67;22.25;;;;;;;-144.87;100.00;61487.56;4955283;28;20495;-75
2023/03/18 01:31:44;;;;;;;39.15;23.80;;;;;;;-144.87;100.00;61487.56;4944468;28;20046;-75
2023/03/18 01:34:15;;;;;;;35.05;22.85;;;;;;;-144.87;100.00;61487.56;4951161;28;20062;-75
2023/03/18 01:36:51;;;;;;;42.97;23.85;;;;;;;-144.87;100.00;61487.56;4936018;28;20105;-76
2023/03/18 01:39:20;;;;;;;35.25;23.33;;;;;;;-144.87;100.00;61487.56;4942631;28;20035;-76
2023/03/18 01:41:47;;;;;;;38.45;24.67;;;;;;;-144.87;100.00;61487.56;4938424;28;20304;-76
2023/03/18 01:44:21;;;;;;;37.28;24.25;;;;;;;-144.87;100.00;61487.56;4963629;28;20050;-83
2023/03/18 01:46:50;;;;;;;39.90;24.52;;;;;;;-144.87;100.00;61487.56;4944768;28;20145;-83
2023/03/18 01:49:22;;;;;;;36.17;24.88;;;;;;;-144.87;100.00;61487.56;4940438;28;20042;-83
2023/03/18 01:52:15;;;;;;;39.15;26.00;;;;;;;-144.87;100.00;61487.56;4974437;28;20117;-84
2023/03/18 01:54:52;;;;;;;40.92;26.23;;;;;;;-144.87;100.00;61487.56;4956027;28;20034;-83
2023/03/18 01:57:19;;;;;;;41.35;25.13;;;;;;;-144.87;100.00;61487.56;4976677;28;20038;-82
2023/03/18 01:59:47;;;;;;;42.58;26.23;;;;;;;-144.87;100.00;61487.56;4962416;28;20050;-82
2023/03/18 02:02:16;;;;;;;45.60;27.00;;;;;;;-144.87;100.00;61487.56;4975682;28;20395;-82
2023/03/18 02:04:52;;;;;;;43.38;27.80;;;;;;;-144.87;100.00;61487.56;4958113;28;20173;-82
2023/03/18 02:07:40;;;;;;;43.70;26.90;;;;;;;-144.87;100.00;61487.56;4959268;28;20050;-83
2023/03/18 02:10:26;;;;;;;46.25;28.08;;;;;;;-144.87;100.00;61487.56;4978873;28;20089;-83
2023/03/18 02:13:04;;;;;;;42.47;27.55;;;;;;;-144.87;100.00;61487.56;4967633;28;20065;-81
2023/03/18 02:15:38;;;;;;;42.33;28.00;;;;;;;-144.87;100.00;61487.56;4951866;28;20492;-82
2023/03/18 02:18:28;;;;;;;44.42;27.55;;;;;;;-144.87;100.00;61487.56;4950926;28;20038;-83
2023/03/18 02:21:13;;;;;;;41.10;26.60;;;;;;;-144.87;100.00;61487.56;4969115;28;20035;-82
2023/03/18 02:24:08;;;;;;;44.95;28.65;;;;;;;-144.87;100.00;61487.56;4947124;28;20050;-83
2023/03/18 02:27:04;;;;;;;40.35;26.90;;;;;;;-144.87;100.00;61487.56;4973910;28;20145;-82
2023/03/18 02:29:42;;;;;;;50.03;28.75;;;;;;;-144.87;100.00;61487.56;4973852;28;20062;-82
2023/03/18 02:32:16;;;;;;;45.22;29.00;;;;;;;-144.87;100.00;61487.56;4948320;28;20086;-75
2023/03/18 02:34:43;;;;;;;42.45;28.67;;;;;;;-144.87;100.00;61487.56;4968454;28;20038;-75
2023/03/18 02:37:10;;;;;;;44.15;28.35;;;;;;;-144.87;100.00;61487.56;4957023;28;20047;-75
2023/03/18 02:39:39;;;;;;;44.80;29.80;;;;;;;-144.87;100.00;61487.56;4929392;28;20042;-75
2023/03/18 02:42:06;;;;;;;45.47;30.95;;;;;;;-144.87;100.00;61487.56;4965725;28;20101;-75
2023/03/18 02:44:38;;;;;;;50.33;30.38;;;;;;;-144.87;100.00;61487.56;4944439;28;20046;-75
2023/03/18 02:47:25;;;;;;;48.63;30.13;;;;;;;-144.87;100.00;61487.56;4959404;28;20556;-75
2023/03/18 02:49:52;;;;;;;47.13;31.17;;;;;;;-144.87;100.00;61487.56;4955245;28;20034;-74
2023/03/18 02:52:18;;;;;;;46.78;29.55;;;;;;;-144.87;100.00;61487.56;4959356;28;20508;-83
2023/03/18 02:54:45;;;;;;;43.65;30.48;;;;;;;-144.87;100.00;61487.56;4946684;28;20039;-83
2023/03/18 02:57:11;;;;;;;45.78;29.75;;;;;;;-144.87;100.00;61487.56;4963174;28;20100;-83
2023/03/18 02:59:58;;;;;;;50.50;33.47;;;;;;;-144.87;100.00;61487.56;4961202;28;20052;-83
2023/03/18 03:02:44;;;;;;;45.72;31.00;;;;;;;-144.87;100.00;61487.56;4958595;28;20113;-82
2023/03/18 03:05:11;;;;;;;50.72;31.80;;;;;;;-144.87;100.00;61487.56;4972611;28;20037;-83
2023/03/18 03:07:38;;;;;;;48.67;32.50;;;;;;;-144.87;100.00;61487.56;4951440;28;20052;-82
2023/03/18 03:10:07;;;;;;;48.90;31.70;;;;;;;-144.87;100.00;61487.56;4942082;28;20038;-83
2023/03/18 03:12:33;;;;;;;52.00;32.58;;;;;;;-144.87;100.00;61487.56;4928207;28;20054;-82
2023/03/18 03:14:59;;;;;;;53.33;32.63;;;;;;;-144.87;100.00;61487.56;4982211;28;20045;-76
2023/03/18 03:17:28;;;;;;;59.40;32.15;;;;;;;-144.87;100.00;61487.56;4943513;28;20049;-76
2023/03/18 03:19:55;;;;;;;46.28;31.10;;;;;;;-144.87;100.00;61487.56;4962796;28;20498;-82
2023/03/18 03:22:21;;;;;;;44.92;31.63;;;;;;;-144.87;100.00;61487.56;4971582;28;20022;-82
2023/03/18 03:24:48;;;;;;;52.05;30.63;;;;;;;-144.87;100.00;61487.56;4957458;28;20039;-83
2023/03/18 03:27:15;;;;;;;43.90;28.27;;;;;;;-144.87;100.00;61487.56;4969861;28;20047;-83
2023/03/18 03:29:42;;;;;;;52.20;28.98;;;;;;;-144.87;100.00;61487.56;4951621;28;20043;-82
2023/03/18 03:32:09;;;;;;;42.63;29.02;;;;;;;-144.87;100.00;61487.56;4956541;28;20042;-83
2023/03/18 03:34:36;;;;;;;39.72;28.45;;;;;;;-144.87;100.00;61487.56;4978844;28;20603;-82
2023/03/18 03:37:02;;;;;;;45.65;28.50;;;;;;;-144.87;100.00;61487.56;4967919;28;20428;-75
2023/03/18 03:39:28;;;;;;;42.60;27.80;;;;;;;-144.87;100.00;61487.56;4961491;28;20133;-75
2023/03/18 03:41:55;;;;;;;43.35;27.52;;;;;;;-144.87;100.00;61487.56;4941347;28;20555;-75
2023/03/18 03:44:23;;;;;;;43.78;26.95;;;;;;;-144.87;100.00;61487.56;4943594;28;20091;-75
2023/03/18 03:46:50;;;;;;;42.80;27.25;;;;;;;-144.87;100.00;61487.56;4968938;28;20035;-77
2023/03/18 03:49:17;;;;;;;46.35;27.30;;;;;;;-144.87;100.00;61487.56;4928483;29;20125;-75
2023/03/18 03:51:44;;;;;;;37.35;24.63;;;;;;;-144.87;100.00;61487.56;4939836;28;20063;-76
2023/03/18 03:54:14;;;;;;;45.63;26.00;;;;;;;-144.87;100.00;61487.56;4941912;28;20415;-75
2023/03/18 03:56:41;;;;;;;43.35;28.10;;;;;;;-144.87;100.00;61487.56;4945516;28;20074;-75
2023/03/18 03:59:09;;;;;;;45.35;26.15;;;;;;;-144.87;100.00;61487.56;4946039;28;20034;-75
2023/03/18 04:01:53;;;;;;;43.60;27.33;;;;;;;-144.87;100.00;61487.56;4975717;28;20069;-75
2023/03/18 04:04:21;;;;;;;50.00;27.55;;;;;;;-144.87;100.00;61487.56;4946743;28;20061;-75
2023/03/18 04:06:47;;;;;;;41.85;26.30;;;;;;;-144.87;100.00;61487.56;4956409;28;20035;-75
2023/03/18 04:09:14;;;;;;;42.55;26.80;;;;;;;-144.87;100.00;61487.56;4950713;28;20097;-75
2023/03/18 04:11:41;;;;;;;45.65;25.48;;;;;;;-144.87;100.00;61487.56;4948720;28;20038;-75
2023/03/18 04:14:08;;;;;;;38.30;27.13;;;;;;;-144.87;100.00;61487.56;4962499;28;20066;-75
2023/03/18 04:16:34;;;;;;;44.25;27.80;;;;;;;-144.87;100.00;61487.56;4944159;28;20055;-75
2023/03/18 04:19:00;;;;;;;43.97;26.55;;;;;;;-144.87;100.00;61487.56;4964388;28;20033;-75
2023/03/18 04:21:27;;;;;;;46.00;26.85;;;;;;;-144.87;100.00;61487.56;4961439;28;20121;-75
2023/03/18 04:23:55;;;;;;;45.75;28.73;;;;;;;-144.87;100.00;61487.56;4948069;28;20089;-75
2023/03/18 04:26:22;;;;;;;40.97;28.35;;;;;;;-144.87;100.00;61487.56;4962037;28;20038;-75
2023/03/18 04:28:49;;;;;;;46.88;28.92;;;;;;;-144.87;100.00;61487.56;4945493;28;20042;-75
2023/03/18 04:31:16;;;;;;;47.53;29.80;;;;;;;-144.87;100.00;61487.56;4961196;28;20404;-76
2023/03/18 04:33:43;;;;;;;48.00;29.20;;;;;;;-144.87;100.00;61487.56;4952081;28;20034;-74
2023/03/18 04:36:10;;;;;;;47.63;29.10;;;;;;;-144.87;100.00;61487.56;4973000;28;20053;-74
2023/03/18 04:38:38;;;;;;;40.25;28.30;;;;;;;-144.87;100.00;61487.56;4948082;28;20042;-75
2023/03/18 04:41:06;;;;;;;43.53;29.15;;;;;;;-144.87;100.00;61487.56;4959846;28;20030;-74
2023/03/18 04:43:32;;;;;;;45.22;28.77;;;;;;;-144.87;100.00;61487.56;4965460;28;20042;-75
2023/03/18 04:45:59;;;;;;;47.55;30.20;;;;;;;-144.87;100.00;61487.56;4959053;28;20042;-75
2023/03/18 04:48:27;;;;;;;44.72;29.45;;;;;;;-144.87;100.00;61487.56;4957694;28;20502;-75
2023/03/18 04:50:56;;;;;;;42.42;29.42;;;;;;;-144.87;100.00;61487.56;4961549;28;20445;-75
2023/03/18 04:53:26;;;;;;;45.03;29.73;;;;;;;-144.87;100.00;61487.56;4940251;28;20034;-74
2023/03/18 04:55:52;;;;;;;39.17;29.15;;;;;;;-144.87;100.00;61487.56;4942041;28;20200;-75
2023/03/18 04:58:25;;;;;;;49.78;29.08;;;;;;;-144.87;100.00;61487.56;4938825;28;20424;-74
2023/03/18 05:01:07;;;;;;;50.85;29.98;;;;;;;-144.87;100.00;61487.56;4948178;28;20031;-76
2023/03/18 05:03:37;;;;;;;45.92;30.27;;;;;;;-144.87;100.00;61487.56;4944923;28;20031;-75
2023/03/18 05:06:05;;;;;;;48.05;29.13;;;;;;;-144.87;100.00;61487.56;4953062;28;20034;-76
2023/03/18 05:08:41;;;;;;;51.45;30.33;;;;;;;-144.87;100.00;61487.56;4955231;28;20035;-76
2023/03/18 05:11:08;;;;;;;52.40;30.55;;;;;;;-144.87;100.00;61487.56;4952735;28;20035;-76
2023/03/18 05:13:36;;;;;;;50.10;31.23;;;;;;;-144.87;100.00;61487.56;4938374;28;20455;-75
2023/03/18 05:16:03;;;;;;;46.28;29.02;;;;;;;-144.87;100.00;61487.56;4952849;28;20150;-74
2023/03/18 05:18:30;;;;;;;47.67;29.23;;;;;;;-144.87;100.00;61487.56;4948568;28;20034;-75
2023/03/18 05:21:00;;;;;;;51.80;29.80;;;;;;;-144.87;100.00;61487.56;4962113;28;20046;-75
2023/03/18 05:23:27;;;;;;;48.17;29.35;;;;;;;-144.87;100.00;61487.56;4956850;28;20045;-75
2023/03/18 05:25:55;;;;;;;47.20;30.55;;;;;;;-144.87;100.00;61487.56;4975633;28;20058;-76
2023/03/18 05:28:24;;;;;;;48.95;30.23;;;;;;;-144.87;100.00;61487.56;4958285;28;20105;-73
2023/03/18 05:31:09;;;;;;;46.05;30.38;;;;;;;-144.87;100.00;61487.56;4962457;28;20626;-74
2023/03/18 05:33:41;;;;;;;48.80;31.10;;;;;;;-144.87;100.00;61487.56;4929360;28;20031;-76
2023/03/18 05:36:08;;;;;;;46.88;30.52;;;;;;;-144.87;100.00;61487.56;4978250;28;20045;-73
2023/03/18 05:38:42;;;;;;;46.40;31.70;;;;;;;-144.87;100.00;61487.56;4950454;28;20048;-73
2023/03/18 05:41:09;;;;;;;50.92;33.05;;;;;;;-144.87;100.00;61487.56;4947133;28;20039;-75
2023/03/18 05:43:38;;;;;;;52.03;33.00;;;;;;;-144.87;100.00;61487.56;4954138;28;20488;-74
2023/03/18 05:46:05;;;;;;;53.55;34.15;;;;;;;-144.87;100.00;61487.56;4960740;28;20419;-75
2023/03/18 05:48:46;;;;;;;52.63;34.63;;;;;;;-144.87;100.00;61487.56;4959556;28;20040;-84
2023/03/18 05:51:12;;;;;;;62.53;35.78;;;;;;;-144.87;100.00;61487.56;4939548;28;20050;-83
2023/03/18 05:53:39;;;;;;;65.30;38.55;;;;;;;-144.87;100.00;61487.56;4961017;28;20043;-84
2023/03/18 05:56:19;;;;;;;59.63;37.65;;;;;;;-144.87;100.00;61487.56;4943261;28;20115;-84
2023/03/18 05:58:50;;;;;;;60.10;37.22;;;;;;;-144.87;100.00;61487.56;4964811;28;20065;-84
2023/03/18 06:01:52;;;;;;;59.08;37.50;;;;;;;-144.87;100.00;61487.56;4961908;28;20034;-83
2023/03/18 06:04:19;;;;;;;58.35;37.80;;;;;;;-144.87;100.00;61487.56;4951531;28;20114;-83
2023/03/18 06:06:47;;;;;;;69.20;41.92;;;;;;;-144.87;100.00;61487.56;4961494;28;20101;-84
2023/03/18 06:09:15;;;;;;;62.72;41.10;;;;;;;-144.87;100.00;61487.56;4962979;28;20027;-84
2023/03/18 06:11:44;;;;;;;64.47;41.63;;;;;;;-144.87;100.00;61487.56;4955212;28;20054;-83
2023/03/18 06:14:11;;;;;;;71.82;41.10;;;;;;;-144.87;100.00;61487.56;4967742;28;20487;-85
2023/03/18 06:16:39;;;;;;;65.80;40.38;;;;;;;-144.87;100.00;61487.56;4962620;28;20034;-84
2023/03/18 06:19:06;;;;;;;62.83;42.03;;;;;;;-144.87;100.00;61487.56;4956492;28;20039;-84
2023/03/18 06:21:33;;;;;;;65.45;40.80;;;;;;;-144.87;100.00;61487.56;4961156;28;20134;-85
2023/03/18 06:24:00;;;;;;;65.38;41.60;;;;;;;-144.87;100.00;61487.56;4965086;28;20030;-84
2023/03/18 06:26:28;;;;;;;67.82;41.40;;;;;;;-144.87;100.00;61487.56;4954396;28;20145;-85
2023/03/18 06:28:55;;;;;;;60.20;41.35;;;;;;;-144.87;100.00;61487.56;4940570;28;20065;-83
2023/03/18 06:31:26;;;;;;;63.03;40.22;;;;;;;-144.87;100.00;61487.56;4969162;28;20042;-84
2023/03/18 06:33:52;;;;;;;71.20;41.03;;;;;;;-144.87;100.00;61487.56;4959425;28;20531;-84
2023/03/18 06:36:20;;;;;;;63.03;41.22;;;;;;;-144.87;100.00;61487.56;4957927;28;20097;-85
2023/03/18 06:38:49;;;;;;;66.60;41.88;;;;;;;-144.87;100.00;61487.56;4957122;28;20050;-84
2023/03/18 06:41:17;;;;;;;69.65;41.67;;;;;;;-144.87;100.00;61487.56;4964928;28;20034;-84
2023/03/18 06:44:04;;;;;;;66.50;40.25;;;;;;;-144.87;100.00;61487.56;4967488;28;20353;-85
2023/03/18 06:46:31;;;;;;;63.08;40.15;;;;;;;-144.87;100.00;61487.56;4959012;28;20050;-84
2023/03/18 06:48:58;;;;;;;65.97;39.60;;;;;;;-144.87;100.00;61487.56;4958820;28;20534;-82
2023/03/18 06:51:29;;;;;;;;;;;;;;;-144.87;100.00;61487.56;4956668;28;20412;-83
2023/03/18 06:53:57;;;;;;;60.33;39.55;;;;;;;-144.87;100.00;61487.56;4963681;28;20414;-85
2023/03/18 06:56:25;;;;;;;63.47;39.70;;;;;;;-144.87;100.00;61487.56;4941341;28;20046;-83
2023/03/18 06:59:00;;;;;;;64.03;38.80;;;;;;;-144.87;100.00;61487.56;4935407;28;20116;-84
2023/03/18 07:01:29;;;;;;;63.38;39.45;;;;;;;-144.87;100.00;61487.56;4960669;28;20042;-84
2023/03/18 07:03:57;;;;;;;54.97;38.72;;;;;;;-144.87;100.00;61487.56;4956457;28;20555;-85
2023/03/18 07:06:24;;;;;;;58.75;38.13;;;;;;;-144.87;100.00;61487.56;4969871;28;20137;-85
2023/03/18 07:08:51;;;;;;;58.60;37.60;;;;;;;-144.87;100.00;61487.56;4939736;28;20046;-85
2023/03/18 07:11:18;;;;;;;64.97;42.45;;;;;;;-144.87;100.00;61487.56;4954083;28;20054;-85
2023/03/18 07:13:45;;;;;;;61.33;39.10;;;;;;;-144.87;100.00;61487.56;4944467;28;20065;-85
2023/03/18 07:16:25;;;;;;;53.50;37.15;;;;;;;-144.87;100.00;61487.56;4952120;28;20126;-83
2023/03/18 07:18:53;;;;;;;46.35;34.80;;;;;;;-144.87;100.00;61487.56;4948693;28;20528;-83
2023/03/18 07:21:21;;;;;;;53.17;35.42;;;;;;;-144.87;100.00;61487.56;4968236;28;20061;-77
2023/03/18 07:23:48;;;;;;;57.55;34.42;;;;;;;-144.87;100.00;61487.56;4964333;28;20030;-84
2023/03/18 07:26:15;;;;;;;52.42;35.63;;;;;;;-144.87;100.00;61487.56;4961438;28;20061;-85
2023/03/18 07:28:41;;;;;;;52.92;35.97;;;;;;;-144.87;100.00;61487.56;4977732;28;20046;-84
2023/03/18 07:31:08;;;;;;;75.65;48.67;;;;;;;-144.87;100.00;61487.56;4943128;28;20035;-83
2023/03/18 07:33:35;;;;;;;62.10;37.47;;;;;;;-144.87;100.00;61487.56;4953752;28;20126;-81
2023/03/18 07:36:01;;;;;;;46.63;31.48;;;;;;;-144.87;100.00;61487.56;4973567;28;20047;-76
2023/03/18 07:38:28;;;;;;;39.78;29.77;;;;;;;-144.87;100.00;61487.56;4963365;28;20101;-73
2023/03/18 07:40:55;;;;;;;42.60;29.60;;;;;;;-144.87;100.00;61487.56;4944854;28;20046;-85
2023/03/18 07:43:22;;;;;;;39.33;26.45;;;;;;;-144.87;100.00;61487.56;4954117;28;20064;-79
2023/03/18 07:45:48;;;;;;;45.40;28.00;;;;;;;-144.87;100.00;61487.56;4955098;28;20049;-84
2023/03/18 07:48:14;;;;;;;38.75;26.67;;;;;;;-144.87;100.00;61487.56;4972651;28;20090;-78
2023/03/18 07:50:41;;;;;;;35.20;23.83;;;;;;;-144.87;100.00;61487.56;4950050;28;20035;-84
2023/03/18 07:53:07;;;;;;;37.50;25.33;;;;;;;-144.87;100.00;61487.56;4964957;28;20034;-79
2023/03/18 07:55:34;;;;;;;36.38;24.02;;;;;;;-144.87;100.00;61487.56;4979670;28;20039;-82
2023/03/18 07:58:04;;;;;;;38.35;24.88;;;;;;;-144.87;100.00;61487.56;4953356;28;20102;-74
2023/03/18 08:00:38;;;;;;;33.28;22.75;;;;;;;-144.87;100.00;61487.56;4980296;28;20091;-73
2023/03/18 08:03:05;;;;;;;34.30;22.50;;;;;;;-144.87;100.00;61487.56;4967578;28;20058;-73
2023/03/18 08:05:32;;;;;;;39.05;22.95;;;;;;;-144.87;100.00;61487.56;4949580;28;20086;-73
2023/03/18 08:08:01;;;;;;;31.42;21.08;;;;;;;-144.87;100.00;61487.56;4969070;28;20531;-73
2023/03/18 08:10:28;;;;;;;31.67;21.30;;;;;;;-144.87;100.00;61487.56;4955353;28;20080;-74
2023/03/18 08:12:54;;;;;;;33.67;21.13;;;;;;;-144.87;100.00;61487.56;4953290;28;20051;-73
2023/03/18 08:15:21;;;;;;;32.10;19.77;;;;;;;-144.87;100.00;61487.56;4951907;28;20093;-75
2023/03/18 08:17:48;;;;;;;27.80;18.83;;;;;;;-144.87;100.00;61487.56;4953137;28;20089;-74
2023/03/18 08:20:15;;;;;;;29.60;18.35;;;;;;;-144.87;100.00;61487.56;4952919;28;20039;-73
2023/03/18 08:22:41;;;;;;;29.98;19.50;;;;;;;-144.87;100.00;61487.56;4937056;28;20514;-72
2023/03/18 08:25:10;;;;;;;29.42;18.83;;;;;;;-144.87;100.00;61487.56;4968996;28;20039;-72
2023/03/18 08:27:45;;;;;;;33.25;18.98;;;;;;;-144.87;100.00;61487.56;4956724;28;20058;-73
2023/03/18 08:30:13;;;;;;;33.72;19.23;;;;;;;-144.87;100.00;61487.56;4980686;28;20060;-73
2023/03/18 08:32:40;;;;;;;25.55;17.80;;;;;;;-144.87;100.00;61487.56;4953778;28;20081;-73
2023/03/18 08:35:08;;;;;;;26.58;17.25;;;;;;;-144.87;100.00;61487.56;4935411;28;20038;-74
2023/03/18 08:37:35;;;;;;;24.15;16.05;;;;;;;-144.87;100.00;61487.56;4953219;28;20050;-74
2023/03/18 08:40:02;;;;;;;24.23;15.50;;;;;;;-144.87;100.00;61487.56;4937298;28;20194;-73
2023/03/18 08:42:29;;;;;;;26.48;15.82;;;;;;;-144.87;100.00;61487.56;4971220;28;20026;-73
2023/03/18 08:44:55;;;;;;;23.52;15.70;;;;;;;-144.87;100.00;61487.56;4970647;28;20050;-73
2023/03/18 08:47:23;;;;;;;22.10;14.98;;;;;;;-144.87;100.00;61487.56;4970111;28;20047;-75
2023/03/18 08:49:50;;;;;;;23.27;14.82;;;;;;;-144.87;100.00;61487.56;4970674;28;20122;-73
2023/03/18 08:52:17;;;;;;;21.00;14.35;;;;;;;-144.87;100.00;61487.56;4944743;28;20055;-73
2023/03/18 08:54:44;;;;;;;19.88;14.27;;;;;;;-144.87;100.00;61487.56;4970627;28;20161;-72
2023/03/18 08:57:11;;;;;;;19.63;12.35;;;;;;;-144.87;100.00;61487.56;4953302;28;20043;-73
2023/03/18 08:59:37;;;;;;;22.52;13.38;;;;;;;-144.87;100.00;61487.56;4970277;28;20480;-73
2023/03/18 09:02:03;;;;;;;18.10;12.60;;;;;;;-144.87;100.00;61487.56;4974222;28;20039;-74
2023/03/18 09:04:30;;;;;;;17.08;12.73;;;;;;;-144.87;100.00;61487.56;4970322;28;20121;-74
2023/03/18 09:06:56;;;;;;;18.48;12.60;;;;;;;-144.87;100.00;61487.56;4970504;28;20074;-73
2023/03/18 09:09:23;;;;;;;21.23;13.10;;;;;;;-144.87;100.00;61487.56;4971365;28;20038;-74
2023/03/18 09:11:49;;;;;;;33.30;18.98;;;;;;;-144.87;100.00;61487.56;4953115;28;20469;-73
2023/03/18 09:14:16;;;;;;;20.67;13.63;;;;;;;-144.87;100.00;61487.56;4970565;28;20110;-76
2023/03/18 09:16:42;;;;;;;18.95;13.80;;;;;;;-144.87;100.00;61487.56;4951180;28;20038;-74
2023/03/18 09:19:09;;;;;;;19.50;13.45;;;;;;;-144.87;100.00;61487.56;4970325;28;20027;-75
2023/03/18 09:21:36;;;;;;;23.13;14.18;;;;;;;-144.87;100.00;61487.56;4969519;28;20474;-75
2023/03/18 09:24:03;;;;;;;23.67;15.48;;;;;;;-144.87;100.00;61487.56;4970279;28;20381;-72
2023/03/18 09:26:29;;;;;;;20.05;14.05;;;;;;;-144.87;100.00;61487.56;4970086;28;20042;-73
2023/03/18 09:28:56;;;;;;;17.90;12.88;;;;;;;-144.87;100.00;61487.56;4952588;28;20043;-73
2023/03/18 09:31:22;;;;;;;21.25;13.65;;;;;;;-144.87;100.00;61487.56;4969999;28;20499;-72
2023/03/18 09:33:48;;;;;;;18.38;12.15;;;;;;;-144.87;100.00;61487.56;4968659;28;20476;-74
2023/03/18 09:36:15;;;;;;;20.35;14.00;;;;;;;-144.87;100.00;61487.56;4936815;28;20054;-72
2023/03/18 09:38:41;;;;;;;20.05;13.73;;;;;;;-144.87;100.00;61487.56;4970046;28;20071;-72
2023/03/18 09:41:28;;;;;;;15.60;12.10;;;;;;;-144.87;100.00;61487.56;4952247;28;20042;-72
2023/03/18 09:44:24;;;;;;;17.05;11.85;;;;;;;-144.87;100.00;61487.56;4979635;28;20034;-74
2023/03/18 09:47:17;;;;;;;21.33;14.30;;;;;;;-144.87;100.00;61487.56;4952096;28;20042;-74
2023/03/18 09:49:51;;;;;;;28.50;18.55;;;;;;;-144.87;100.00;61487.56;4967547;28;20468;-74
2023/03/18 09:52:46;;;;;;;23.10;17.25;;;;;;;-144.87;100.00;61487.56;4969259;28;20047;-73
2023/03/18 09:55:21;;;;;;;32.13;17.98;;;;;;;-144.87;100.00;61487.56;4966230;28;20030;-73
2023/03/18 09:57:50;;;;;;;25.77;16.92;;;;;;;-144.87;100.00;61487.56;4969148;28;20425;-74
2023/03/18 10:00:25;;;;;;;26.70;16.05;;;;;;;-144.87;100.00;61487.56;4953520;28;20066;-74
2023/03/18 10:03:11;;;;;;;22.02;15.93;;;;;;;-144.87;100.00;61487.56;4970204;28;20035;-74
2023/03/18 10:05:53;;;;;;;22.25;15.57;;;;;;;-144.87;100.00;61487.56;4954958;28;20042;-74
2023/03/18 10:08:33;;;;;;;20.90;15.02;;;;;;;-144.87;100.00;61487.56;4940140;28;20141;-71
2023/03/18 10:11:05;;;;;;;23.50;16.02;;;;;;;-144.87;100.00;61487.56;4955815;28;20042;-74
2023/03/18 10:13:41;;;;;;;21.67;15.25;;;;;;;-144.87;100.00;61487.56;4956407;28;20126;-73
2023/03/18 10:16:12;;;;;;;40.28;24.17;;;;;;;-144.87;100.00;61487.56;4954388;28;20075;-73
2023/03/18 10:18:42;;;;;;;35.97;22.50;;;;;;;-144.87;100.00;61487.56;4940203;28;20042;-73
2023/03/18 10:21:14;;;;;;;20.63;14.82;;;;;;;-144.87;100.00;61487.56;4956132;28;20034;-72
2023/03/18 10:23:48;;;;;;;19.80;14.23;;;;;;;-144.87;100.00;61487.56;4950520;28;20071;-73
2023/03/18 10:26:26;;;;;;;21.10;14.48;;;;;;;-144.87;100.00;61487.56;4937850;29;20110;-82
2023/03/18 10:29:19;;;;;;;16.08;12.02;;;;;;;-144.87;100.00;61487.56;4967767;28;20105;-73
2023/03/18 10:31:57;;;;;;;19.40;12.25;;;;;;;-144.87;100.00;61487.56;4944197;28;20051;-73
2023/03/18 10:35:04;;;;;;;17.65;12.15;;;;;;;-144.87;100.00;61487.56;4979485;28;20043;-88
2023/03/18 10:37:50;;;;;;;32.33;19.80;;;;;;;-144.87;100.00;61487.56;4976297;28;20038;-73
2023/03/18 10:40:18;;;;;;;25.20;14.48;;;;;;;-144.87;100.00;61487.56;4937293;28;20054;-75
2023/03/18 10:42:44;;;;;;;17.17;11.30;;;;;;;-144.87;100.00;61487.56;4970574;28;20103;-73
2023/03/18 10:45:29;;;;;;;17.45;11.13;;;;;;;-144.87;100.00;61487.56;4971797;28;20049;-73
2023/03/18 10:50:33;;;;;;;15.00;9.93;;;;;;;18.54;100.00;100918.81;5031714;27;2111544;-74
2023/03/18 10:53:26;;;;;;;17.65;10.77;;;;;;;17.94;100.00;100918.59;5074402;28;20036;-72
2023/03/18 10:55:56;;;;;;;18.80;10.45;;;;;;;17.53;100.00;100909.41;5063445;28;20107;-73
2023/03/18 10:58:22;;;;;;;17.90;10.45;;;;;;;17.34;100.00;100910.09;5089724;28;20419;-73
2023/03/18 11:00:50;;;;;;;17.92;10.68;;;;;;;17.08;100.00;100908.69;5084823;28;20028;-72
2023/03/18 11:03:26;;;;;;;16.90;10.52;;;;;;;16.72;100.00;100907.94;5073029;28;20027;-72
2023/03/18 11:05:54;;;;;;;17.08;10.73;;;;;;;16.55;100.00;100907.47;5071155;28;20032;-72
2023/03/18 11:08:38;;;;;;;19.00;11.35;;;;;;;16.48;100.00;100900.88;5083300;28;20044;-78
2023/03/18 11:11:34;;;;;;;14.57;9.43;;;;;;;16.52;100.00;100906.88;5083198;28;20032;-79